sensor_id;sensor_type;location;lat;lon;timestamp;pressure;altitude;pressure_sealevel;temperature;humidity
48156;BME280;35568;48.104;11.782;2023-11-19T00:00:14;95456.12;;;5.94;54.62
48156;BME280;35568;48.104;11.782;2023-11-19T00:02:42;95457.59;;;5.82;54.30
48156;BME280;35568;48.104;11.782;2023-11-19T00:05:10;95459.42;;;5.86;54.02
48156;BME280;35568;48.104;11.782;2023-11-19T00:07:38;95460.86;;;5.89;54.26
48156;BME280;35568;48.104;11.782;2023-11-19T00:10:06;95459.42;;;5.93;54.24
48156;BME280;35568;48.104;11.782;2023-11-19T00:12:34;95456.17;;;6.00;54.09
48156;BME280;35568;48.104;11.782;2023-11-19T00:15:01;95447.71;;;5.85;54.51
48156;BME280;35568;48.104;11.782;2023-11-19T00:17:28;95443.15;;;6.09;54.42
48156;BME280;35568;48.104;11.782;2023-11-19T00:19:55;95425.44;;;6.11;54.38
48156;BME280;35568;48.104;11.782;2023-11-19T00:22:22;95422.12;;;6.23;54.47
48156;BME280;35568;48.104;11.782;2023-11-19T00:24:50;95421.07;;;6.13;54.11
48156;BME280;35568;48.104;11.782;2023-11-19T00:27:18;95422.81;;;6.16;54.32
48156;BME280;35568;48.104;11.782;2023-11-19T00:29:45;95416.85;;;6.13;54.65
48156;BME280;35568;48.104;11.782;2023-11-19T00:32:13;95410.27;;;5.92;54.75
48156;BME280;35568;48.104;11.782;2023-11-19T00:34:40;95404.55;;;6.12;54.88
48156;BME280;35568;48.104;11.782;2023-11-19T00:37:08;95402.82;;;6.32;54.42
48156;BME280;35568;48.104;11.782;2023-11-19T00:39:35;95408.92;;;6.32;54.50
48156;BME280;35568;48.104;11.782;2023-11-19T00:42:02;95408.57;;;6.11;54.50
48156;BME280;35568;48.104;11.782;2023-11-19T00:44:29;95408.49;;;6.09;55.16
48156;BME280;35568;48.104;11.782;2023-11-19T00:46:56;95412.74;;;6.04;55.26
48156;BME280;35568;48.104;11.782;2023-11-19T00:49:24;95407.04;;;5.97;55.38
48156;BME280;35568;48.104;11.782;2023-11-19T00:51:51;95402.94;;;6.35;55.11
48156;BME280;35568;48.104;11.782;2023-11-19T00:54:17;95398.29;;;6.55;55.31
48156;BME280;35568;48.104;11.782;2023-11-19T00:56:44;95392.18;;;6.42;55.18
48156;BME280;35568;48.104;11.782;2023-11-19T00:59:11;95390.80;;;6.65;55.08
48156;BME280;35568;48.104;11.782;2023-11-19T01:01:48;95389.88;;;6.55;54.85
48156;BME280;35568;48.104;11.782;2023-11-19T01:04:17;95390.08;;;6.66;54.92
48156;BME280;35568;48.104;11.782;2023-11-19T01:06:46;95388.51;;;6.16;54.84
48156;BME280;35568;48.104;11.782;2023-11-19T01:09:13;95383.50;;;6.59;55.06
48156;BME280;35568;48.104;11.782;2023-11-19T01:11:40;95388.80;;;6.50;55.27
48156;BME280;35568;48.104;11.782;2023-11-19T01:14:08;95385.38;;;6.43;55.33
48156;BME280;35568;48.104;11.782;2023-11-19T01:16:35;95382.90;;;6.44;54.99
48156;BME280;35568;48.104;11.782;2023-11-19T01:19:02;95379.31;;;6.51;55.02
48156;BME280;35568;48.104;11.782;2023-11-19T01:21:29;95374.72;;;6.33;55.46
48156;BME280;35568;48.104;11.782;2023-11-19T01:23:57;95378.21;;;6.57;55.13
48156;BME280;35568;48.104;11.782;2023-11-19T01:26:25;95373.18;;;6.43;55.50
48156;BME280;35568;48.104;11.782;2023-11-19T01:28:52;95370.21;;;6.05;55.14
48156;BME280;35568;48.104;11.782;2023-11-19T01:31:20;95363.98;;;6.15;55.98
48156;BME280;35568;48.104;11.782;2023-11-19T01:33:46;95356.89;;;5.68;56.58
48156;BME280;35568;48.104;11.782;2023-11-19T01:36:13;95360.47;;;6.03;56.11
48156;BME280;35568;48.104;11.782;2023-11-19T01:38:41;95355.00;;;5.70;56.46
48156;BME280;35568;48.104;11.782;2023-11-19T01:41:08;95356.63;;;5.80;56.59
48156;BME280;35568;48.104;11.782;2023-11-19T01:43:36;95350.83;;;5.75;56.68
48156;BME280;35568;48.104;11.782;2023-11-19T01:46:05;95348.03;;;5.69;56.89
48156;BME280;35568;48.104;11.782;2023-11-19T01:48:34;95349.55;;;5.85;56.55
48156;BME280;35568;48.104;11.782;2023-11-19T01:51:01;95348.11;;;6.09;56.77
48156;BME280;35568;48.104;11.782;2023-11-19T01:53:30;95343.12;;;5.87;56.53
48156;BME280;35568;48.104;11.782;2023-11-19T01:55:57;95334.84;;;6.02;56.73
48156;BME280;35568;48.104;11.782;2023-11-19T01:58:25;95337.67;;;6.44;56.23
48156;BME280;35568;48.104;11.782;2023-11-19T02:00:52;95325.99;;;6.22;56.30
48156;BME280;35568;48.104;11.782;2023-11-19T02:03:20;95330.40;;;6.31;56.34
48156;BME280;35568;48.104;11.782;2023-11-19T02:05:48;95328.90;;;6.30;56.54
48156;BME280;35568;48.104;11.782;2023-11-19T02:08:16;95324.40;;;6.31;56.33
48156;BME280;35568;48.104;11.782;2023-11-19T02:10:44;95323.27;;;6.03;56.59
48156;BME280;35568;48.104;11.782;2023-11-19T02:13:12;95315.58;;;6.33;56.47
48156;BME280;35568;48.104;11.782;2023-11-19T02:15:40;95312.64;;;6.04;56.80
48156;BME280;35568;48.104;11.782;2023-11-19T02:18:24;95309.83;;;6.80;56.69
48156;BME280;35568;48.104;11.782;2023-11-19T02:20:53;95292.70;;;6.70;56.01
48156;BME280;35568;48.104;11.782;2023-11-19T02:23:21;95291.47;;;7.14;55.87
48156;BME280;35568;48.104;11.782;2023-11-19T02:26:01;95286.07;;;6.96;55.89
48156;BME280;35568;48.104;11.782;2023-11-19T02:28:29;95277.46;;;6.99;56.05
48156;BME280;35568;48.104;11.782;2023-11-19T02:30:56;95270.10;;;7.12;55.72
48156;BME280;35568;48.104;11.782;2023-11-19T02:33:23;95260.28;;;7.00;55.34
48156;BME280;35568;48.104;11.782;2023-11-19T02:35:50;95263.08;;;7.13;55.86
48156;BME280;35568;48.104;11.782;2023-11-19T02:38:17;95256.08;;;6.80;55.83
48156;BME280;35568;48.104;11.782;2023-11-19T02:40:44;95257.43;;;7.09;55.76
48156;BME280;35568;48.104;11.782;2023-11-19T02:43:11;95246.14;;;7.09;56.30
48156;BME280;35568;48.104;11.782;2023-11-19T02:45:38;95253.16;;;6.85;56.14
48156;BME280;35568;48.104;11.782;2023-11-19T02:48:05;95249.32;;;7.01;56.32
48156;BME280;35568;48.104;11.782;2023-11-19T02:50:32;95245.60;;;6.83;56.77
48156;BME280;35568;48.104;11.782;2023-11-19T02:52:59;95250.81;;;6.61;57.25
48156;BME280;35568;48.104;11.782;2023-11-19T02:55:26;95249.20;;;6.95;57.15
48156;BME280;35568;48.104;11.782;2023-11-19T02:57:53;95239.04;;;6.71;57.37
48156;BME280;35568;48.104;11.782;2023-11-19T03:00:22;95231.07;;;6.12;57.25
48156;BME280;35568;48.104;11.782;2023-11-19T03:02:50;95226.81;;;7.65;56.05
48156;BME280;35568;48.104;11.782;2023-11-19T03:05:17;95218.91;;;7.70;56.15
48156;BME280;35568;48.104;11.782;2023-11-19T03:07:45;95217.06;;;7.89;56.26
48156;BME280;35568;48.104;11.782;2023-11-19T03:10:12;95215.89;;;7.96;55.94
48156;BME280;35568;48.104;11.782;2023-11-19T03:12:40;95213.76;;;7.85;55.77
48156;BME280;35568;48.104;11.782;2023-11-19T03:15:08;95211.89;;;8.20;55.78
48156;BME280;35568;48.104;11.782;2023-11-19T03:17:36;95210.76;;;8.01;55.42
48156;BME280;35568;48.104;11.782;2023-11-19T03:20:05;95210.61;;;8.17;55.64
48156;BME280;35568;48.104;11.782;2023-11-19T03:22:32;95211.41;;;8.16;55.59
48156;BME280;35568;48.104;11.782;2023-11-19T03:24:59;95207.84;;;7.93;55.83
48156;BME280;35568;48.104;11.782;2023-11-19T03:27:26;95205.81;;;8.31;55.78
48156;BME280;35568;48.104;11.782;2023-11-19T03:29:53;95203.24;;;8.13;55.69
48156;BME280;35568;48.104;11.782;2023-11-19T03:32:20;95199.14;;;8.60;55.54
48156;BME280;35568;48.104;11.782;2023-11-19T03:34:47;95203.07;;;8.41;55.41
48156;BME280;35568;48.104;11.782;2023-11-19T03:37:13;95204.58;;;8.24;55.48
48156;BME280;35568;48.104;11.782;2023-11-19T03:39:40;95204.45;;;8.41;55.35
48156;BME280;35568;48.104;11.782;2023-11-19T03:42:07;95196.84;;;8.19;55.75
48156;BME280;35568;48.104;11.782;2023-11-19T03:44:34;95194.97;;;8.54;55.45
48156;BME280;35568;48.104;11.782;2023-11-19T03:47:01;95197.78;;;8.53;55.50
48156;BME280;35568;48.104;11.782;2023-11-19T03:49:27;95193.34;;;8.90;55.47
48156;BME280;35568;48.104;11.782;2023-11-19T03:51:54;95204.64;;;8.68;55.19
48156;BME280;35568;48.104;11.782;2023-11-19T03:54:21;95205.13;;;8.76;55.03
48156;BME280;35568;48.104;11.782;2023-11-19T03:56:48;95209.96;;;8.99;54.67
48156;BME280;35568;48.104;11.782;2023-11-19T03:59:15;95209.72;;;8.98;54.69
48156;BME280;35568;48.104;11.782;2023-11-19T04:03:02;95204.73;;;9.39;54.54
48156;BME280;35568;48.104;11.782;2023-11-19T04:05:29;95201.29;;;8.76;55.71
48156;BME280;35568;48.104;11.782;2023-11-19T04:07:56;95199.40;;;8.62;56.78
48156;BME280;35568;48.104;11.782;2023-11-19T04:10:23;95199.18;;;8.49;57.19
48156;BME280;35568;48.104;11.782;2023-11-19T04:12:50;95197.77;;;8.78;57.87
48156;BME280;35568;48.104;11.782;2023-11-19T04:15:18;95199.76;;;8.62;57.60
48156;BME280;35568;48.104;11.782;2023-11-19T04:17:45;95203.34;;;8.69;57.65
48156;BME280;35568;48.104;11.782;2023-11-19T04:20:12;95203.75;;;8.81;57.50
48156;BME280;35568;48.104;11.782;2023-11-19T04:22:40;95206.70;;;8.70;57.74
48156;BME280;35568;48.104;11.782;2023-11-19T04:25:08;95213.50;;;8.40;58.82
48156;BME280;35568;48.104;11.782;2023-11-19T04:27:35;95213.60;;;8.54;58.84
48156;BME280;35568;48.104;11.782;2023-11-19T04:30:02;95210.02;;;8.66;58.82
48156;BME280;35568;48.104;11.782;2023-11-19T04:32:29;95206.80;;;8.54;59.31
48156;BME280;35568;48.104;11.782;2023-11-19T04:34:56;95206.63;;;8.70;59.09
48156;BME280;35568;48.104;11.782;2023-11-19T04:37:23;95210.10;;;8.58;59.16
48156;BME280;35568;48.104;11.782;2023-11-19T04:39:56;95213.34;;;8.27;60.08
48156;BME280;35568;48.104;11.782;2023-11-19T04:42:23;95211.75;;;8.62;60.27
48156;BME280;35568;48.104;11.782;2023-11-19T04:44:50;95216.07;;;8.59;60.06
48156;BME280;35568;48.104;11.782;2023-11-19T04:47:17;95219.47;;;8.47;60.13
48156;BME280;35568;48.104;11.782;2023-11-19T04:49:45;95210.19;;;8.50;60.10
48156;BME280;35568;48.104;11.782;2023-11-19T04:52:12;95211.53;;;8.63;59.55
48156;BME280;35568;48.104;11.782;2023-11-19T04:54:41;95212.54;;;9.01;58.86
48156;BME280;35568;48.104;11.782;2023-11-19T04:57:08;95210.36;;;8.59;58.86
48156;BME280;35568;48.104;11.782;2023-11-19T04:59:36;95212.00;;;8.97;58.95
48156;BME280;35568;48.104;11.782;2023-11-19T05:02:03;95213.44;;;9.09;58.95
48156;BME280;35568;48.104;11.782;2023-11-19T05:04:31;95216.04;;;9.17;59.15
48156;BME280;35568;48.104;11.782;2023-11-19T05:06:58;95213.05;;;9.01;59.39
48156;BME280;35568;48.104;11.782;2023-11-19T05:09:26;95217.54;;;9.04;59.56
48156;BME280;35568;48.104;11.782;2023-11-19T05:11:54;95215.83;;;9.37;59.34
48156;BME280;35568;48.104;11.782;2023-11-19T05:14:21;95218.57;;;9.61;59.42
48156;BME280;35568;48.104;11.782;2023-11-19T05:16:49;95221.52;;;9.50;59.70
48156;BME280;35568;48.104;11.782;2023-11-19T05:19:15;95221.54;;;9.10;59.97
48156;BME280;35568;48.104;11.782;2023-11-19T05:21:42;95231.30;;;9.78;59.86
48156;BME280;35568;48.104;11.782;2023-11-19T05:24:09;95227.66;;;9.47;59.87
48156;BME280;35568;48.104;11.782;2023-11-19T05:26:37;95231.80;;;9.65;59.64
48156;BME280;35568;48.104;11.782;2023-11-19T05:29:04;95232.68;;;9.73;59.54
48156;BME280;35568;48.104;11.782;2023-11-19T05:31:32;95234.74;;;9.70;59.99
48156;BME280;35568;48.104;11.782;2023-11-19T05:33:59;95244.72;;;9.74;60.08
48156;BME280;35568;48.104;11.782;2023-11-19T05:36:26;95243.12;;;9.81;60.07
48156;BME280;35568;48.104;11.782;2023-11-19T05:38:53;95251.98;;;9.93;60.15
48156;BME280;35568;48.104;11.782;2023-11-19T05:41:20;95251.83;;;9.94;60.39
48156;BME280;35568;48.104;11.782;2023-11-19T05:43:47;95246.91;;;9.97;60.48
48156;BME280;35568;48.104;11.782;2023-11-19T05:46:13;95245.75;;;10.16;60.22
48156;BME280;35568;48.104;11.782;2023-11-19T05:48:41;95253.37;;;9.73;60.26
48156;BME280;35568;48.104;11.782;2023-11-19T05:51:08;95244.84;;;9.82;60.58
48156;BME280;35568;48.104;11.782;2023-11-19T05:53:35;95249.07;;;9.87;60.93
48156;BME280;35568;48.104;11.782;2023-11-19T05:56:02;95249.69;;;9.95;60.94
48156;BME280;35568;48.104;11.782;2023-11-19T05:58:30;95252.22;;;10.00;60.58
48156;BME280;35568;48.104;11.782;2023-11-19T06:00:57;95252.24;;;9.95;60.82
48156;BME280;35568;48.104;11.782;2023-11-19T06:03:24;95250.64;;;10.29;61.34
48156;BME280;35568;48.104;11.782;2023-11-19T06:05:52;95253.38;;;9.71;61.21
48156;BME280;35568;48.104;11.782;2023-11-19T06:08:20;95242.57;;;9.84;61.39
48156;BME280;35568;48.104;11.782;2023-11-19T06:10:47;95246.87;;;9.80;61.18
48156;BME280;35568;48.104;11.782;2023-11-19T06:13:15;95240.78;;;10.12;60.51
48156;BME280;35568;48.104;11.782;2023-11-19T06:15:42;95239.23;;;9.76;60.96
48156;BME280;35568;48.104;11.782;2023-11-19T06:18:10;95236.79;;;10.17;60.63
48156;BME280;35568;48.104;11.782;2023-11-19T06:20:38;95239.33;;;9.75;60.99
48156;BME280;35568;48.104;11.782;2023-11-19T06:23:04;95248.10;;;10.00;60.88
48156;BME280;35568;48.104;11.782;2023-11-19T06:25:32;95255.96;;;9.90;61.28
48156;BME280;35568;48.104;11.782;2023-11-19T06:28:00;95259.51;;;10.16;61.47
48156;BME280;35568;48.104;11.782;2023-11-19T06:30:27;95248.55;;;10.08;61.40
48156;BME280;35568;48.104;11.782;2023-11-19T06:32:54;95241.19;;;10.05;60.85
48156;BME280;35568;48.104;11.782;2023-11-19T06:35:22;95239.13;;;10.02;60.67
48156;BME280;35568;48.104;11.782;2023-11-19T06:37:49;95244.04;;;10.23;60.68
48156;BME280;35568;48.104;11.782;2023-11-19T06:40:16;95239.28;;;10.02;60.71
48156;BME280;35568;48.104;11.782;2023-11-19T06:42:44;95246.98;;;10.30;60.57
48156;BME280;35568;48.104;11.782;2023-11-19T06:45:12;95248.77;;;10.13;60.88
48156;BME280;35568;48.104;11.782;2023-11-19T06:47:39;95250.00;;;10.10;60.54
48156;BME280;35568;48.104;11.782;2023-11-19T06:50:07;95252.64;;;10.52;60.56
48156;BME280;35568;48.104;11.782;2023-11-19T06:52:33;95250.45;;;10.32;60.86
48156;BME280;35568;48.104;11.782;2023-11-19T06:55:01;95249.79;;;10.18;60.51
48156;BME280;35568;48.104;11.782;2023-11-19T06:57:28;95254.13;;;10.09;60.64
48156;BME280;35568;48.104;11.782;2023-11-19T06:59:57;95258.44;;;10.31;60.65
48156;BME280;35568;48.104;11.782;2023-11-19T07:02:24;95260.67;;;10.46;60.67
48156;BME280;35568;48.104;11.782;2023-11-19T07:04:51;95259.30;;;10.33;60.80
48156;BME280;35568;48.104;11.782;2023-11-19T07:07:18;95262.89;;;10.05;61.11
48156;BME280;35568;48.104;11.782;2023-11-19T07:09:45;95264.66;;;10.53;60.99
48156;BME280;35568;48.104;11.782;2023-11-19T07:12:12;95263.10;;;10.60;60.83
48156;BME280;35568;48.104;11.782;2023-11-19T07:14:39;95273.73;;;10.42;60.46
48156;BME280;35568;48.104;11.782;2023-11-19T07:17:07;95274.91;;;10.55;60.59
48156;BME280;35568;48.104;11.782;2023-11-19T07:19:34;95274.82;;;9.93;61.23
48156;BME280;35568;48.104;11.782;2023-11-19T07:22:02;95271.53;;;10.26;61.00
48156;BME280;35568;48.104;11.782;2023-11-19T07:24:30;95275.48;;;10.44;60.67
48156;BME280;35568;48.104;11.782;2023-11-19T07:27:01;95279.80;;;10.47;60.47
48156;BME280;35568;48.104;11.782;2023-11-19T07:29:28;95280.26;;;10.14;61.11
48156;BME280;35568;48.104;11.782;2023-11-19T07:31:55;95276.29;;;10.43;60.79
48156;BME280;35568;48.104;11.782;2023-11-19T07:34:22;95279.44;;;10.16;60.72
48156;BME280;35568;48.104;11.782;2023-11-19T07:36:49;95282.28;;;10.82;60.42
48156;BME280;35568;48.104;11.782;2023-11-19T07:39:17;95288.31;;;10.34;60.40
48156;BME280;35568;48.104;11.782;2023-11-19T07:41:45;95287.32;;;10.73;60.19
48156;BME280;35568;48.104;11.782;2023-11-19T07:44:11;95295.07;;;10.44;60.35
48156;BME280;35568;48.104;11.782;2023-11-19T07:46:38;95296.71;;;10.92;60.03
48156;BME280;35568;48.104;11.782;2023-11-19T07:49:06;95299.57;;;10.70;60.09
48156;BME280;35568;48.104;11.782;2023-11-19T07:51:33;95305.43;;;10.80;59.88
48156;BME280;35568;48.104;11.782;2023-11-19T07:53:59;95306.26;;;10.82;59.78
48156;BME280;35568;48.104;11.782;2023-11-19T07:56:26;95304.69;;;10.65;60.29
48156;BME280;35568;48.104;11.782;2023-11-19T07:58:53;95308.29;;;10.70;60.14
48156;BME280;35568;48.104;11.782;2023-11-19T08:01:21;95306.46;;;11.01;60.15
48156;BME280;35568;48.104;11.782;2023-11-19T08:03:48;95311.26;;;10.88;60.08
48156;BME280;35568;48.104;11.782;2023-11-19T08:06:15;95310.68;;;11.18;59.81
48156;BME280;35568;48.104;11.782;2023-11-19T08:08:42;95310.92;;;10.95;59.75
48156;BME280;35568;48.104;11.782;2023-11-19T08:11:10;95306.77;;;10.77;59.94
48156;BME280;35568;48.104;11.782;2023-11-19T08:13:37;95310.05;;;10.66;60.22
48156;BME280;35568;48.104;11.782;2023-11-19T08:16:04;95311.55;;;10.64;60.42
48156;BME280;35568;48.104;11.782;2023-11-19T08:18:31;95315.31;;;10.82;59.91
48156;BME280;35568;48.104;11.782;2023-11-19T08:20:58;95314.98;;;11.17;59.70
48156;BME280;35568;48.104;11.782;2023-11-19T08:23:25;95307.69;;;10.83;59.74
48156;BME280;35568;48.104;11.782;2023-11-19T08:25:52;95312.75;;;10.92;59.74
48156;BME280;35568;48.104;11.782;2023-11-19T08:28:19;95314.65;;;10.99;59.61
48156;BME280;35568;48.104;11.782;2023-11-19T08:30:46;95315.19;;;10.99;59.58
48156;BME280;35568;48.104;11.782;2023-11-19T08:33:13;95314.74;;;11.33;59.19
48156;BME280;35568;48.104;11.782;2023-11-19T08:35:40;95314.84;;;11.10;59.38
48156;BME280;35568;48.104;11.782;2023-11-19T08:38:08;95316.89;;;11.44;59.16
48156;BME280;35568;48.104;11.782;2023-11-19T08:40:36;95315.07;;;11.21;59.13
48156;BME280;35568;48.104;11.782;2023-11-19T08:43:08;95318.38;;;11.41;58.88
48156;BME280;35568;48.104;11.782;2023-11-19T08:45:44;95324.03;;;11.38;58.91
48156;BME280;35568;48.104;11.782;2023-11-19T08:48:11;95320.06;;;11.35;58.92
48156;BME280;35568;48.104;11.782;2023-11-19T08:50:39;95320.24;;;11.51;58.74
48156;BME280;35568;48.104;11.782;2023-11-19T08:53:07;95318.74;;;11.26;58.58
48156;BME280;35568;48.104;11.782;2023-11-19T08:55:33;95319.97;;;11.49;58.79
48156;BME280;35568;48.104;11.782;2023-11-19T08:58:00;95323.82;;;11.57;58.73
48156;BME280;35568;48.104;11.782;2023-11-19T09:00:38;95324.21;;;11.25;59.05
48156;BME280;35568;48.104;11.782;2023-11-19T09:03:06;95325.28;;;11.45;58.97
48156;BME280;35568;48.104;11.782;2023-11-19T09:05:33;95323.01;;;11.33;58.86
48156;BME280;35568;48.104;11.782;2023-11-19T09:08:14;95320.28;;;11.61;58.27
48156;BME280;35568;48.104;11.782;2023-11-19T09:10:41;95321.14;;;11.74;58.51
48156;BME280;35568;48.104;11.782;2023-11-19T09:13:07;95313.00;;;11.40;58.25
48156;BME280;35568;48.104;11.782;2023-11-19T09:15:42;95313.38;;;11.86;58.30
48156;BME280;35568;48.104;11.782;2023-11-19T09:18:09;95321.84;;;11.49;59.00
48156;BME280;35568;48.104;11.782;2023-11-19T09:20:53;95314.14;;;11.63;58.60
48156;BME280;35568;48.104;11.782;2023-11-19T09:23:20;95320.06;;;11.74;58.08
48156;BME280;35568;48.104;11.782;2023-11-19T09:25:47;95325.41;;;11.90;58.22
48156;BME280;35568;48.104;11.782;2023-11-19T09:28:14;95328.31;;;11.34;58.20
48156;BME280;35568;48.104;11.782;2023-11-19T09:30:41;95326.51;;;11.52;58.59
48156;BME280;35568;48.104;11.782;2023-11-19T09:33:08;95320.02;;;12.00;58.12
48156;BME280;35568;48.104;11.782;2023-11-19T09:35:35;95327.25;;;11.68;58.74
48156;BME280;35568;48.104;11.782;2023-11-19T09:38:03;95323.40;;;12.14;58.28
48156;BME280;35568;48.104;11.782;2023-11-19T09:40:30;95329.45;;;11.54;58.39
48156;BME280;35568;48.104;11.782;2023-11-19T09:42:58;95334.61;;;12.18;58.28
48156;BME280;35568;48.104;11.782;2023-11-19T09:45:27;95335.65;;;11.84;57.96
48156;BME280;35568;48.104;11.782;2023-11-19T09:47:55;95328.12;;;11.73;58.01
48156;BME280;35568;48.104;11.782;2023-11-19T09:50:24;95327.14;;;11.65;58.08
48156;BME280;35568;48.104;11.782;2023-11-19T09:52:51;95325.45;;;11.55;58.30
48156;BME280;35568;48.104;11.782;2023-11-19T09:55:18;95328.62;;;11.61;58.12
48156;BME280;35568;48.104;11.782;2023-11-19T09:57:45;95324.01;;;11.77;57.94
48156;BME280;35568;48.104;11.782;2023-11-19T10:00:15;95316.27;;;11.61;58.53
48156;BME280;35568;48.104;11.782;2023-11-19T10:02:43;95311.97;;;11.48;58.65
48156;BME280;35568;48.104;11.782;2023-11-19T10:05:11;95315.09;;;11.77;58.71
48156;BME280;35568;48.104;11.782;2023-11-19T10:07:38;95315.93;;;12.13;58.47
48156;BME280;35568;48.104;11.782;2023-11-19T10:10:06;95306.34;;;12.15;57.79
48156;BME280;35568;48.104;11.782;2023-11-19T10:12:46;95307.62;;;12.15;58.05
48156;BME280;35568;48.104;11.782;2023-11-19T10:15:20;95303.51;;;12.38;57.69
48156;BME280;35568;48.104;11.782;2023-11-19T10:17:49;95295.21;;;12.64;57.26
48156;BME280;35568;48.104;11.782;2023-11-19T10:20:16;95290.99;;;12.86;56.77
48156;BME280;35568;48.104;11.782;2023-11-19T10:22:44;95289.34;;;12.37;57.27
48156;BME280;35568;48.104;11.782;2023-11-19T10:25:22;95288.46;;;12.59;57.23
48156;BME280;35568;48.104;11.782;2023-11-19T10:27:50;95288.43;;;12.45;57.18
48156;BME280;35568;48.104;11.782;2023-11-19T10:30:18;95290.03;;;12.49;56.75
48156;BME280;35568;48.104;11.782;2023-11-19T10:33:30;95292.54;;;12.97;56.61
48156;BME280;35568;48.104;11.782;2023-11-19T10:35:57;95281.39;;;12.54;56.75
48156;BME280;35568;48.104;11.782;2023-11-19T10:38:25;95278.44;;;12.54;56.48
48156;BME280;35568;48.104;11.782;2023-11-19T10:40:53;95269.24;;;12.84;55.66
48156;BME280;35568;48.104;11.782;2023-11-19T10:43:22;95276.41;;;13.54;55.40
48156;BME280;35568;48.104;11.782;2023-11-19T10:45:50;95265.91;;;13.28;54.87
48156;BME280;35568;48.104;11.782;2023-11-19T10:48:17;95263.06;;;13.37;54.99
48156;BME280;35568;48.104;11.782;2023-11-19T10:50:46;95263.55;;;13.52;55.18
48156;BME280;35568;48.104;11.782;2023-11-19T10:53:13;95251.65;;;14.02;54.16
48156;BME280;35568;48.104;11.782;2023-11-19T10:55:40;95253.36;;;14.36;53.17
48156;BME280;35568;48.104;11.782;2023-11-19T10:58:07;95258.88;;;14.26;52.51
48156;BME280;35568;48.104;11.782;2023-11-19T11:00:39;95252.08;;;14.11;52.93
48156;BME280;35568;48.104;11.782;2023-11-19T11:03:16;95251.23;;;13.81;53.26
48156;BME280;35568;48.104;11.782;2023-11-19T11:05:43;95253.20;;;13.80;53.82
48156;BME280;35568;48.104;11.782;2023-11-19T11:08:14;95241.75;;;13.34;54.78
48156;BME280;35568;48.104;11.782;2023-11-19T11:10:44;95249.33;;;13.26;54.71
48156;BME280;35568;48.104;11.782;2023-11-19T11:13:13;95249.61;;;13.76;53.97
48156;BME280;35568;48.104;11.782;2023-11-19T11:15:41;95250.87;;;13.85;53.82
48156;BME280;35568;48.104;11.782;2023-11-19T11:18:09;95246.89;;;13.61;54.03
48156;BME280;35568;48.104;11.782;2023-11-19T11:20:36;95244.82;;;13.63;53.28
48156;BME280;35568;48.104;11.782;2023-11-19T11:23:21;95240.81;;;13.67;53.36
48156;BME280;35568;48.104;11.782;2023-11-19T11:26:00;95234.55;;;13.23;54.11
48156;BME280;35568;48.104;11.782;2023-11-19T11:28:37;95246.41;;;13.25;54.13
48156;BME280;35568;48.104;11.782;2023-11-19T11:31:15;95239.80;;;13.02;54.86
48156;BME280;35568;48.104;11.782;2023-11-19T11:34:04;95245.42;;;12.90;55.21
48156;BME280;35568;48.104;11.782;2023-11-19T11:36:46;95236.52;;;13.10;55.27
48156;BME280;35568;48.104;11.782;2023-11-19T11:39:16;95242.84;;;13.17;54.66
48156;BME280;35568;48.104;11.782;2023-11-19T11:41:44;95241.19;;;13.26;54.49
48156;BME280;35568;48.104;11.782;2023-11-19T11:44:11;95234.61;;;13.16;54.16
48156;BME280;35568;48.104;11.782;2023-11-19T11:46:54;95237.67;;;13.71;53.63
48156;BME280;35568;48.104;11.782;2023-11-19T11:49:26;95227.97;;;13.40;53.28
48156;BME280;35568;48.104;11.782;2023-11-19T11:52:09;95224.48;;;14.20;53.20
48156;BME280;35568;48.104;11.782;2023-11-19T11:54:37;95224.84;;;14.09;52.49
48156;BME280;35568;48.104;11.782;2023-11-19T11:57:07;95227.56;;;14.27;52.15
48156;BME280;35568;48.104;11.782;2023-11-19T11:59:46;95227.02;;;14.16;51.52
48156;BME280;35568;48.104;11.782;2023-11-19T12:02:14;95228.69;;;14.48;51.79
48156;BME280;35568;48.104;11.782;2023-11-19T12:04:42;95232.66;;;14.79;51.52
48156;BME280;35568;48.104;11.782;2023-11-19T12:07:13;95226.79;;;14.29;51.29
48156;BME280;35568;48.104;11.782;2023-11-19T12:09:41;95229.93;;;14.50;50.36
48156;BME280;35568;48.104;11.782;2023-11-19T12:12:26;95228.23;;;14.80;50.28
48156;BME280;35568;48.104;11.782;2023-11-19T12:15:03;95229.48;;;13.60;51.75
48156;BME280;35568;48.104;11.782;2023-11-19T12:17:42;95220.15;;;14.47;51.02
48156;BME280;35568;48.104;11.782;2023-11-19T12:20:11;95223.46;;;15.04;50.77
48156;BME280;35568;48.104;11.782;2023-11-19T12:22:39;95215.12;;;14.73;50.57
48156;BME280;35568;48.104;11.782;2023-11-19T12:25:07;95217.74;;;14.35;50.43
48156;BME280;35568;48.104;11.782;2023-11-19T12:27:34;95218.65;;;14.39;50.06
48156;BME280;35568;48.104;11.782;2023-11-19T12:30:02;95221.72;;;14.19;50.29
48156;BME280;35568;48.104;11.782;2023-11-19T12:32:38;95209.85;;;14.39;50.59
48156;BME280;35568;48.104;11.782;2023-11-19T12:35:05;95204.16;;;14.38;49.79
48156;BME280;35568;48.104;11.782;2023-11-19T12:37:32;95206.46;;;14.87;50.00
48156;BME280;35568;48.104;11.782;2023-11-19T12:40:00;95216.12;;;14.94;49.15
48156;BME280;35568;48.104;11.782;2023-11-19T12:42:36;95205.37;;;14.57;48.89
48156;BME280;35568;48.104;11.782;2023-11-19T12:45:03;95200.63;;;14.01;49.19
48156;BME280;35568;48.104;11.782;2023-11-19T12:47:31;95204.40;;;14.40;49.44
48156;BME280;35568;48.104;11.782;2023-11-19T12:49:58;95194.80;;;14.26;50.23
48156;BME280;35568;48.104;11.782;2023-11-19T12:52:26;95191.07;;;14.34;49.51
48156;BME280;35568;48.104;11.782;2023-11-19T12:54:53;95193.45;;;14.63;48.80
48156;BME280;35568;48.104;11.782;2023-11-19T12:57:21;95198.08;;;14.64;48.33
48156;BME280;35568;48.104;11.782;2023-11-19T13:00:02;95199.80;;;14.74;48.40
48156;BME280;35568;48.104;11.782;2023-11-19T13:02:45;95195.42;;;14.60;48.11